Reading, United Kingdom
Current Conditions -  °F | °C
As of 5:50 PM on Saturday 22 Nov 2014 (Local Time) from EGUB Reporting Station
Broken Clouds Broken Clouds  
Wind Chill: 55°   Ceiling: 3100
Heat Index: 55°   Visibility: 3mi
Dew Point: 55°   Wind: 6mph
Humidity: 100%   Direction: 140°SE
Pressure: 29.91"   Gusts: NA
Location:  51.45°N, 0.99°W
Report Text: EGUB 221750Z AUTO 14005KT 5000 // FEW007/// BKN031/// 13/13 Q1013
Loading
Personal Weather Stations






























Interactive Weather Map New forecast layout! Learn more

10-Day Weather Forecast

Advertisements
Track Severe Weather on mobile